createdAt,value
2018-01-25T00:00:16.829Z,8.99
2018-01-25T00:01:16.030Z,8.79
2018-01-25T00:02:17.329Z,8.73
2018-01-25T00:03:16.238Z,8.63
2018-01-25T00:04:16.122Z,8.56
2018-01-25T00:05:16.567Z,8.52
2018-01-25T00:06:15.927Z,8.48
2018-01-25T00:07:16.774Z,8.42
2018-01-25T00:08:38.498Z,8.36
2018-01-25T00:09:39.328Z,8.33
2018-01-25T00:10:38.944Z,8.28
2018-01-25T00:11:39.963Z,8.26
2018-01-25T00:12:38.823Z,8.20
2018-01-25T00:13:38.890Z,8.18
2018-01-25T00:14:39.775Z,8.16
2018-01-25T00:15:39.034Z,8.15
2018-01-25T00:17:01.171Z,8.12
2018-01-25T00:18:01.656Z,8.12
2018-01-25T00:19:01.643Z,8.10
2018-01-25T00:20:00.961Z,8.08
2018-01-25T00:21:01.655Z,8.05
2018-01-25T00:22:01.074Z,8.05
2018-01-25T00:23:01.870Z,8.05
2018-01-25T00:24:01.271Z,8.03
2018-01-25T00:25:02.179Z,8.01
2018-01-25T00:26:01.779Z,8.03
2018-01-25T00:27:00.930Z,8.03
2018-01-25T00:28:01.458Z,8.01
2018-01-25T00:29:00.867Z,7.97
2018-01-25T00:30:01.294Z,7.98
2018-01-25T00:31:01.967Z,7.97
2018-01-25T00:32:02.307Z,7.95
2018-01-25T00:33:02.003Z,7.94
2018-01-25T00:34:01.578Z,7.93
2018-01-25T00:35:01.975Z,7.91
2018-01-25T00:36:01.868Z,7.90
2018-01-25T00:37:01.549Z,7.88
2018-01-25T00:38:01.352Z,7.90
2018-01-25T00:39:02.285Z,7.90
2018-01-25T00:40:01.608Z,7.91
2018-01-25T00:41:01.318Z,7.91
2018-01-25T00:42:02.034Z,7.90
2018-01-25T00:43:01.851Z,7.90
2018-01-25T00:44:01.818Z,7.91
2018-01-25T00:45:01.778Z,7.91
2018-01-25T00:46:01.394Z,7.91
2018-01-25T00:47:00.868Z,7.90
2018-01-25T00:48:02.413Z,7.88
2018-01-25T00:49:03.090Z,7.88
2018-01-25T00:50:03.108Z,7.88
2018-01-25T00:51:02.878Z,7.90
2018-01-25T00:52:01.959Z,7.90
2018-01-25T00:53:01.867Z,7.88
2018-01-25T00:54:01.702Z,7.87
2018-01-25T00:55:01.495Z,7.87
2018-01-25T00:56:01.349Z,7.87
2018-01-25T00:57:24.354Z,7.88
2018-01-25T00:58:25.005Z,7.88
2018-01-25T00:59:24.848Z,7.87
2018-01-25T01:00:24.606Z,7.85
2018-01-25T01:01:25.358Z,7.87
2018-01-25T01:02:47.409Z,7.87
2018-01-25T01:03:47.811Z,7.87
2018-01-25T01:04:47.154Z,7.87
2018-01-25T01:05:47.866Z,7.87
2018-01-25T01:06:47.801Z,7.88
2018-01-25T01:07:48.203Z,7.87
2018-01-25T01:08:47.959Z,7.85
2018-01-25T01:09:47.815Z,7.83
2018-01-25T01:10:48.571Z,7.83
2018-01-25T01:11:48.430Z,7.83
2018-01-25T01:12:48.386Z,7.85
2018-01-25T01:13:48.289Z,7.83
2018-01-25T01:14:48.106Z,7.82
2018-01-25T01:15:47.836Z,7.82
2018-01-25T01:16:48.542Z,7.83
2018-01-25T01:17:48.449Z,7.80
2018-01-25T01:18:48.219Z,7.83
2018-01-25T01:19:48.033Z,7.83
2018-01-25T01:20:47.867Z,7.83
2018-01-25T01:21:47.212Z,7.83
2018-01-25T01:22:47.658Z,7.83
2018-01-25T01:23:48.518Z,7.80
2018-01-25T01:24:47.910Z,7.79
2018-01-25T01:25:47.372Z,7.77
2018-01-25T01:26:47.747Z,7.76
2018-01-25T01:27:48.606Z,7.75
2018-01-25T01:28:48.166Z,7.75
2018-01-25T01:29:47.868Z,7.75
2018-01-25T01:30:47.726Z,7.73
2018-01-25T01:31:48.907Z,7.73
2018-01-25T01:32:47.343Z,7.73
2018-01-25T01:33:47.897Z,7.72
2018-01-25T01:34:48.653Z,7.72
2018-01-25T01:35:48.459Z,7.69
2018-01-25T01:36:48.354Z,7.69
2018-01-25T01:37:48.341Z,7.70
2018-01-25T01:39:54.473Z,7.63
2018-01-25T01:40:54.962Z,7.63
2018-01-25T01:41:55.721Z,7.63
2018-01-25T01:42:55.684Z,7.61
2018-01-25T01:43:55.249Z,7.63
2018-01-25T01:45:17.593Z,7.61
2018-01-25T01:46:18.419Z,7.58
2018-01-25T01:47:18.046Z,7.60
2018-01-25T01:48:17.789Z,7.58
2018-01-25T01:49:40.518Z,7.57
2018-01-25T01:50:41.312Z,7.57
2018-01-25T01:51:41.014Z,7.56
2018-01-25T01:54:01.005Z,7.50
2018-01-25T01:55:01.791Z,7.50
2018-01-25T01:56:01.620Z,7.50
2018-01-25T01:57:01.016Z,7.51
2018-01-25T01:58:01.794Z,7.47
2018-01-25T01:59:01.167Z,7.47
2018-01-25T02:00:01.431Z,7.47
2018-01-25T02:01:01.198Z,7.43
2018-01-25T02:02:01.558Z,7.43
2018-01-25T02:03:01.493Z,7.40
2018-01-25T02:04:23.335Z,7.40
2018-01-25T02:05:24.330Z,7.39
2018-01-25T02:06:24.021Z,7.39
2018-01-25T02:07:23.478Z,7.36
2018-01-25T02:08:24.215Z,7.36
2018-01-25T02:09:23.866Z,7.35
2018-01-25T02:10:24.572Z,7.35
2018-01-25T02:11:24.278Z,7.35
2018-01-25T02:12:46.545Z,7.35
2018-01-25T02:13:47.345Z,7.33
2018-01-25T02:14:47.146Z,7.32
2018-01-25T02:15:46.808Z,7.32
2018-01-25T02:16:47.146Z,7.31
2018-01-25T02:17:46.838Z,7.31
2018-01-25T02:18:46.468Z,7.28
2018-01-25T02:19:47.279Z,7.28
2018-01-25T02:20:46.543Z,7.28
2018-01-25T02:21:47.107Z,7.25
2018-01-25T02:22:46.601Z,7.24
2018-01-25T02:23:46.997Z,7.24
2018-01-25T02:24:46.185Z,7.23
2018-01-25T02:25:46.848Z,7.20
2018-01-25T02:26:46.688Z,7.20
2018-01-25T02:27:46.491Z,7.18
2018-01-25T02:29:08.846Z,7.18
2018-01-25T02:30:09.712Z,7.17
2018-01-25T02:31:09.232Z,7.17
2018-01-25T02:32:09.526Z,7.14
2018-01-25T02:33:11.881Z,7.15
2018-01-25T02:34:09.543Z,7.14
2018-01-25T02:35:10.142Z,7.14
2018-01-25T02:36:09.864Z,7.13
2018-01-25T02:37:09.433Z,7.13
2018-01-25T02:38:10.047Z,7.11
2018-01-25T02:39:09.758Z,7.13
2018-01-25T02:40:09.383Z,7.11
2018-01-25T02:41:10.234Z,7.11
2018-01-25T02:42:09.644Z,7.10
2018-01-25T02:43:09.292Z,7.11
2018-01-25T02:44:09.552Z,7.11
2018-01-25T02:45:09.374Z,7.11
2018-01-25T02:46:09.659Z,7.11
2018-01-25T02:47:09.924Z,7.10
2018-01-25T02:48:32.371Z,7.11
2018-01-25T02:49:32.947Z,7.11
2018-01-25T02:50:32.982Z,7.11
2018-01-25T02:51:32.896Z,7.11
2018-01-25T02:52:32.621Z,7.10
2018-01-25T02:53:31.886Z,7.10
2018-01-25T02:54:32.089Z,7.10
2018-01-25T02:55:32.976Z,7.06
2018-01-25T02:56:32.679Z,7.05
2018-01-25T02:57:32.017Z,7.06
2018-01-25T02:58:32.792Z,7.03
2018-01-25T02:59:55.002Z,7.03
2018-01-25T03:00:55.867Z,7.03
2018-01-25T03:01:55.592Z,7.02
2018-01-25T03:02:54.961Z,7.02
2018-01-25T03:03:55.598Z,7.00
2018-01-25T03:04:55.289Z,7.02
2018-01-25T03:05:55.050Z,7.00
2018-01-25T03:06:55.362Z,6.99
2018-01-25T03:07:54.761Z,6.99
2018-01-25T03:08:55.344Z,6.97
2018-01-25T03:09:54.799Z,6.96
2018-01-25T03:10:55.659Z,6.96
2018-01-25T03:11:54.920Z,6.96
2018-01-25T03:12:55.817Z,6.93
2018-01-25T03:13:55.735Z,6.95
2018-01-25T03:14:55.311Z,6.95
2018-01-25T03:15:55.453Z,6.95
2018-01-25T03:16:54.971Z,6.95
2018-01-25T03:17:55.226Z,6.95
2018-01-25T03:18:55.137Z,6.95
2018-01-25T03:19:55.349Z,6.95
2018-01-25T03:20:54.903Z,6.93
2018-01-25T03:21:55.183Z,6.93
2018-01-25T03:22:55.536Z,6.93
2018-01-25T03:23:54.891Z,6.93
2018-01-25T03:24:55.558Z,6.93
2018-01-25T03:25:55.455Z,6.93
2018-01-25T03:26:55.040Z,6.93
2018-01-25T03:27:55.686Z,6.93
2018-01-25T03:28:55.317Z,6.93
2018-01-25T03:29:55.302Z,6.93
2018-01-25T03:30:55.010Z,6.93
2018-01-25T03:31:54.969Z,6.92
2018-01-25T03:32:55.655Z,6.92
2018-01-25T03:33:55.304Z,6.92
2018-01-25T03:34:55.018Z,6.93
2018-01-25T03:35:56.018Z,6.92
2018-01-25T03:36:55.721Z,6.92
2018-01-25T03:38:17.372Z,6.92
2018-01-25T03:39:17.604Z,6.89
2018-01-25T03:40:18.481Z,6.89
2018-01-25T03:41:40.197Z,6.89
2018-01-25T03:42:40.736Z,6.89
2018-01-25T03:43:41.416Z,6.88
2018-01-25T03:44:41.067Z,6.88
2018-01-25T03:45:40.908Z,6.88
2018-01-25T03:46:42.357Z,6.88
2018-01-25T03:47:40.533Z,6.88
2018-01-25T03:48:41.028Z,6.88
2018-01-25T03:49:40.709Z,6.87
2018-01-25T03:50:41.174Z,6.88
2018-01-25T03:51:40.990Z,6.87
2018-01-25T03:53:03.488Z,6.87
2018-01-25T03:54:25.797Z,6.87
2018-01-25T03:55:26.236Z,6.87
2018-01-25T03:56:49.254Z,6.87
2018-01-25T03:57:49.953Z,6.85
2018-01-25T03:58:49.720Z,6.85
2018-01-25T03:59:49.489Z,6.87
2018-01-25T04:00:50.185Z,6.88
2018-01-25T04:01:49.860Z,6.87
2018-01-25T04:02:49.325Z,6.87
2018-01-25T04:03:49.810Z,6.87
2018-01-25T04:04:49.592Z,6.85
2018-01-25T04:05:49.327Z,6.85
2018-01-25T04:06:50.065Z,6.84
2018-01-25T04:07:49.488Z,6.84
2018-01-25T04:08:49.979Z,6.84
2018-01-25T04:09:49.514Z,6.84
2018-01-25T04:10:49.240Z,6.82
2018-01-25T04:11:49.420Z,6.84
2018-01-25T04:12:49.935Z,6.85
2018-01-25T04:13:49.824Z,6.84
2018-01-25T04:14:49.420Z,6.85
2018-01-25T04:15:50.155Z,6.84
2018-01-25T04:16:49.369Z,6.85
2018-01-25T04:17:49.591Z,6.85
2018-01-25T04:18:49.123Z,6.85
2018-01-25T04:19:50.039Z,6.84
2018-01-25T04:20:49.904Z,6.84
2018-01-25T04:21:49.304Z,6.85
2018-01-25T04:22:50.751Z,6.85
2018-01-25T04:23:49.496Z,6.84
2018-01-25T04:24:49.706Z,6.84
2018-01-25T04:25:49.466Z,6.84
2018-01-25T04:26:49.570Z,6.84
2018-01-25T04:27:49.365Z,6.84
2018-01-25T04:28:49.809Z,6.84
2018-01-25T04:29:49.621Z,6.84
2018-01-25T04:30:50.155Z,6.84
2018-01-25T04:31:49.491Z,6.84
2018-01-25T04:32:50.152Z,6.82
2018-01-25T04:34:11.996Z,6.84
2018-01-25T04:35:12.712Z,6.84
2018-01-25T04:36:12.191Z,6.84
2018-01-25T04:37:12.771Z,6.85
2018-01-25T04:38:12.261Z,6.85
2018-01-25T04:39:12.681Z,6.87
2018-01-25T04:40:12.264Z,6.89
2018-01-25T04:41:35.397Z,6.89
2018-01-25T04:42:35.913Z,6.89
2018-01-25T04:43:36.425Z,6.89
2018-01-25T04:44:36.269Z,6.92
2018-01-25T04:45:35.594Z,6.92
2018-01-25T04:46:36.137Z,6.92
2018-01-25T04:47:35.882Z,6.92
2018-01-25T04:48:36.685Z,6.92
2018-01-25T04:49:36.245Z,6.93
2018-01-25T04:50:35.945Z,6.93
2018-01-25T04:51:35.725Z,6.93
2018-01-25T04:52:36.491Z,6.93
2018-01-25T04:53:35.778Z,6.93
2018-01-25T04:54:36.201Z,6.95
2018-01-25T04:55:35.543Z,6.93
2018-01-25T04:56:36.368Z,6.95
2018-01-25T04:57:35.540Z,6.96
2018-01-25T04:58:35.802Z,6.96
2018-01-25T04:59:36.313Z,6.96
2018-01-25T05:00:36.020Z,6.96
2018-01-25T05:01:35.802Z,6.97
2018-01-25T05:02:35.989Z,6.96
2018-01-25T05:03:35.486Z,6.96
2018-01-25T05:04:35.896Z,6.96
2018-01-25T05:05:35.652Z,6.95
2018-01-25T05:06:36.567Z,6.95
2018-01-25T05:07:35.836Z,6.96
2018-01-25T05:08:35.419Z,6.95
2018-01-25T05:09:36.176Z,6.95
2018-01-25T05:10:35.828Z,6.96
2018-01-25T05:11:36.613Z,6.95
2018-01-25T05:12:35.915Z,6.96
2018-01-25T05:13:35.308Z,6.96
2018-01-25T05:14:36.047Z,6.97
2018-01-25T05:15:35.780Z,6.96
2018-01-25T05:16:36.344Z,6.97
2018-01-25T05:17:35.689Z,6.97
2018-01-25T05:18:35.732Z,6.97
2018-01-25T05:19:35.511Z,6.97
2018-01-25T05:20:36.324Z,6.97
2018-01-25T05:21:35.787Z,6.97
2018-01-25T05:22:36.461Z,6.96
2018-01-25T05:23:36.100Z,6.96
2018-01-25T05:24:58.133Z,6.95
2018-01-25T05:25:59.293Z,6.93
2018-01-25T05:26:58.090Z,6.93
2018-01-25T05:27:58.407Z,6.89
2018-01-25T05:28:58.125Z,6.89
2018-01-25T05:29:58.424Z,6.88
2018-01-25T05:30:58.217Z,6.88
2018-01-25T05:31:59.431Z,6.88
2018-01-25T05:32:57.797Z,6.87
2018-01-25T05:33:58.529Z,6.87
2018-01-25T05:34:57.902Z,6.87
2018-01-25T05:35:58.708Z,6.89
2018-01-25T05:36:58.511Z,6.89
2018-01-25T05:37:59.385Z,6.89
2018-01-25T05:38:58.640Z,6.92
2018-01-25T05:39:58.519Z,6.92
2018-01-25T05:40:58.425Z,6.92
2018-01-25T05:41:57.883Z,6.95
2018-01-25T05:42:58.421Z,6.95
2018-01-25T05:43:57.804Z,6.95
2018-01-25T05:44:58.851Z,6.96
2018-01-25T05:45:58.418Z,6.95
2018-01-25T05:47:21.093Z,6.95
2018-01-25T05:48:21.117Z,6.95
2018-01-25T05:49:20.599Z,6.95
2018-01-25T05:50:21.381Z,6.95
2018-01-25T05:51:21.058Z,6.95
2018-01-25T05:52:48.210Z,6.95
2018-01-25T05:53:46.298Z,6.95
2018-01-25T05:54:45.854Z,6.92
2018-01-25T05:55:45.929Z,6.89
2018-01-25T05:56:46.910Z,6.89
2018-01-25T05:57:46.110Z,6.88
2018-01-25T05:58:45.880Z,6.87
2018-01-25T05:59:45.474Z,6.87
2018-01-25T06:00:46.633Z,6.85
2018-01-25T06:02:08.874Z,6.84
2018-01-25T06:03:09.436Z,6.84
2018-01-25T06:04:10.729Z,6.81
2018-01-25T06:05:10.416Z,6.82
2018-01-25T06:06:13.246Z,6.82
2018-01-25T06:07:09.918Z,6.82
2018-01-25T06:08:10.027Z,6.82
2018-01-25T06:09:09.971Z,6.82
2018-01-25T06:10:09.699Z,6.79
2018-01-25T06:11:10.086Z,6.77
2018-01-25T06:12:09.533Z,6.79
2018-01-25T06:13:09.104Z,6.77
2018-01-25T06:14:09.491Z,6.75
2018-01-25T06:15:09.143Z,6.75
2018-01-25T06:16:10.063Z,6.75
2018-01-25T06:17:32.631Z,6.74
2018-01-25T06:18:33.402Z,6.72
2018-01-25T06:19:33.619Z,6.70
2018-01-25T06:20:55.416Z,6.75
2018-01-25T06:21:56.135Z,6.75
2018-01-25T06:22:55.506Z,6.75
2018-01-25T06:23:56.528Z,6.77
2018-01-25T06:24:56.457Z,6.75
2018-01-25T06:25:57.997Z,6.74
2018-01-25T06:27:01.229Z,6.77
2018-01-25T06:28:03.173Z,6.78
2018-01-25T06:29:19.316Z,6.79
2018-01-25T06:30:19.740Z,6.79
2018-01-25T06:31:19.378Z,6.82
2018-01-25T06:32:20.175Z,6.82
2018-01-25T06:33:42.443Z,6.81
2018-01-25T06:34:42.884Z,6.82
2018-01-25T06:35:42.281Z,6.81
2018-01-25T06:36:43.735Z,6.79
2018-01-25T06:37:42.366Z,6.78
2018-01-25T06:38:46.499Z,6.77
2018-01-25T06:39:47.563Z,6.77
2018-01-25T06:40:43.050Z,6.78
2018-01-25T06:41:42.970Z,6.78
2018-01-25T06:42:42.293Z,6.77
2018-01-25T06:43:43.385Z,6.77
2018-01-25T06:44:42.682Z,6.79
2018-01-25T06:45:43.161Z,6.78
2018-01-25T06:46:42.627Z,6.78
2018-01-25T06:47:42.966Z,6.78
2018-01-25T06:48:42.484Z,6.81
2018-01-25T06:50:05.313Z,6.78
2018-01-25T06:51:06.197Z,6.79
2018-01-25T06:52:06.760Z,6.77
2018-01-25T06:53:29.225Z,6.75
2018-01-25T06:54:30.255Z,6.75
2018-01-25T06:55:29.728Z,6.74
2018-01-25T06:56:29.482Z,6.70
2018-01-25T06:57:30.066Z,6.70
2018-01-25T06:58:29.639Z,6.70
2018-01-25T06:59:29.755Z,6.72
2018-01-25T07:00:29.370Z,6.72
2018-01-25T07:01:30.031Z,6.72
2018-01-25T07:02:32.340Z,6.69
2018-01-25T07:03:29.865Z,6.70
2018-01-25T07:04:30.040Z,6.70
2018-01-25T07:05:29.949Z,6.70
2018-01-25T07:06:30.023Z,6.72
2018-01-25T07:07:29.997Z,6.72
2018-01-25T07:08:29.465Z,6.69
2018-01-25T07:09:28.820Z,6.70
2018-01-25T07:10:29.195Z,6.72
2018-01-25T07:11:35.716Z,6.70
2018-01-25T07:12:52.387Z,6.67
2018-01-25T07:13:53.186Z,6.67
2018-01-25T07:14:53.053Z,6.70
2018-01-25T07:15:52.589Z,6.72
2018-01-25T07:16:52.352Z,6.74
2018-01-25T07:17:52.277Z,6.74
2018-01-25T07:18:53.245Z,6.75
2018-01-25T07:19:53.192Z,6.75
2018-01-25T07:20:52.950Z,6.81
2018-01-25T07:21:52.630Z,6.82
2018-01-25T07:22:52.044Z,6.82
2018-01-25T07:23:52.661Z,6.84
2018-01-25T07:24:52.082Z,6.85
2018-01-25T07:25:53.210Z,6.87
2018-01-25T07:26:53.245Z,6.84
2018-01-25T07:27:53.201Z,6.84
2018-01-25T07:28:52.625Z,6.81
2018-01-25T07:29:52.506Z,6.78
2018-01-25T07:30:52.551Z,6.77
2018-01-25T07:31:52.158Z,6.75
2018-01-25T07:33:15.502Z,6.77
2018-01-25T07:34:39.434Z,6.74
2018-01-25T07:35:39.460Z,6.70
2018-01-25T07:36:39.644Z,6.69
2018-01-25T07:37:39.668Z,6.72
2018-01-25T07:38:39.253Z,6.72
2018-01-25T07:39:40.501Z,6.72
2018-01-25T07:40:39.270Z,6.75
2018-01-25T07:41:40.005Z,6.77
2018-01-25T07:42:39.919Z,6.77
2018-01-25T07:44:02.704Z,6.78
2018-01-25T07:45:03.652Z,6.82
2018-01-25T07:46:03.246Z,6.82
2018-01-25T07:47:02.729Z,6.85
2018-01-25T07:48:03.620Z,6.87
2018-01-25T07:49:03.732Z,6.88
2018-01-25T07:50:03.471Z,6.92
2018-01-25T07:51:25.592Z,6.92
2018-01-25T07:52:26.414Z,6.93
2018-01-25T07:53:26.442Z,6.95
2018-01-25T07:54:26.177Z,6.96
2018-01-25T07:55:26.146Z,6.97
2018-01-25T07:56:25.935Z,6.99
2018-01-25T07:57:26.057Z,7.00
2018-01-25T07:58:25.969Z,7.02
2018-01-25T07:59:25.666Z,7.02
2018-01-25T08:00:26.281Z,7.03
2018-01-25T08:01:26.369Z,7.03
2018-01-25T08:02:25.884Z,7.05
2018-01-25T08:03:26.838Z,7.06
2018-01-25T08:04:26.246Z,7.07
2018-01-25T08:05:25.828Z,7.06
2018-01-25T08:06:26.682Z,7.06
2018-01-25T08:07:49.515Z,7.07
2018-01-25T08:08:49.014Z,7.10
2018-01-25T08:09:49.973Z,7.11
2018-01-25T08:10:49.945Z,7.14
2018-01-25T08:11:50.025Z,7.14
2018-01-25T08:12:49.990Z,7.15
2018-01-25T08:13:49.757Z,7.17
2018-01-25T08:14:49.307Z,7.20
2018-01-25T08:16:12.590Z,7.21
2018-01-25T08:17:13.537Z,7.21
2018-01-25T08:18:35.950Z,7.23
2018-01-25T08:19:36.805Z,7.25
2018-01-25T08:20:36.387Z,7.28
2018-01-25T08:21:37.531Z,7.28
2018-01-25T08:22:36.595Z,7.29
2018-01-25T08:23:36.016Z,7.29
2018-01-25T08:24:59.086Z,7.31
2018-01-25T08:26:00.128Z,7.31
2018-01-25T08:27:00.039Z,7.31
2018-01-25T08:28:00.060Z,7.29
2018-01-25T08:28:59.580Z,7.31
2018-01-25T08:30:00.340Z,7.31
2018-01-25T08:31:00.343Z,7.29
2018-01-25T08:31:59.984Z,7.32
2018-01-25T08:33:00.015Z,7.32
2018-01-25T08:34:00.106Z,7.33
2018-01-25T08:34:59.769Z,7.33
2018-01-25T08:35:59.238Z,7.33
2018-01-25T08:37:00.374Z,7.33
2018-01-25T08:37:59.850Z,7.33
2018-01-25T08:38:59.241Z,7.35
2018-01-25T08:39:59.642Z,7.36
2018-01-25T08:40:59.472Z,7.36
2018-01-25T08:42:00.445Z,7.38
2018-01-25T08:42:59.716Z,7.38
2018-01-25T08:43:59.571Z,7.38
2018-01-25T08:44:59.927Z,7.39
2018-01-25T08:45:59.356Z,7.40
2018-01-25T08:46:59.877Z,7.42
2018-01-25T08:47:59.297Z,7.43
2018-01-25T08:48:59.878Z,7.47
2018-01-25T08:49:59.821Z,7.51
2018-01-25T08:50:59.619Z,7.53
2018-01-25T08:51:59.640Z,7.57
2018-01-25T08:53:01.041Z,7.60
2018-01-25T08:53:59.982Z,7.66
2018-01-25T08:54:59.564Z,7.69
2018-01-25T08:56:00.040Z,7.75
2018-01-25T08:56:59.693Z,7.77
2018-01-25T08:57:59.750Z,7.80
2018-01-25T08:58:59.728Z,7.79
2018-01-25T09:00:00.026Z,7.79
2018-01-25T09:01:00.236Z,7.79
2018-01-25T09:02:00.135Z,7.77
2018-01-25T09:03:00.249Z,7.80
2018-01-25T09:04:00.250Z,7.79
2018-01-25T09:05:00.374Z,7.80
2018-01-25T09:05:59.996Z,7.82
2018-01-25T09:06:59.899Z,7.82
2018-01-25T09:07:59.829Z,7.82
2018-01-25T09:08:59.832Z,7.82
2018-01-25T09:09:59.641Z,7.80
2018-01-25T09:10:59.270Z,7.82
2018-01-25T09:12:00.266Z,7.82
2018-01-25T09:12:59.709Z,7.82
2018-01-25T09:13:59.386Z,7.80
2018-01-25T09:14:59.818Z,7.82
2018-01-25T09:15:59.446Z,7.83
2018-01-25T09:16:59.993Z,7.87
2018-01-25T09:18:00.031Z,7.85
2018-01-25T09:18:59.845Z,7.87
2018-01-25T09:19:59.803Z,7.85
2018-01-25T09:20:59.835Z,7.87
2018-01-25T09:21:59.366Z,7.83
2018-01-25T09:22:59.746Z,7.83
2018-01-25T09:23:59.421Z,7.85
2018-01-25T09:25:00.158Z,7.85
2018-01-25T09:25:59.637Z,7.87
2018-01-25T09:26:59.178Z,7.90
2018-01-25T09:28:00.452Z,7.90
2018-01-25T09:28:59.911Z,7.88
2018-01-25T09:30:00.025Z,7.90
2018-01-25T09:31:00.480Z,7.91
2018-01-25T09:31:59.533Z,7.88
2018-01-25T09:32:59.412Z,7.88
2018-01-25T09:34:42.738Z,7.93
2018-01-25T09:35:43.844Z,7.94
2018-01-25T09:36:43.908Z,7.95
2018-01-25T09:37:44.010Z,7.97
2018-01-25T09:38:43.583Z,7.98
2018-01-25T09:39:43.428Z,7.97
2018-01-25T09:40:43.146Z,7.94
2018-01-25T09:41:42.881Z,7.94
2018-01-25T09:42:43.231Z,7.97
2018-01-25T09:43:43.037Z,7.98
2018-01-25T09:44:43.861Z,8.03
2018-01-25T09:45:43.933Z,8.08
2018-01-25T09:46:44.062Z,8.06
2018-01-25T09:47:44.005Z,8.09
2018-01-25T09:48:44.123Z,8.13
2018-01-25T09:49:43.117Z,8.15
2018-01-25T09:50:43.532Z,8.16
2018-01-25T09:51:43.247Z,8.19
2018-01-25T09:52:43.221Z,8.16
2018-01-25T09:53:43.521Z,8.18
2018-01-25T09:54:43.231Z,8.23
2018-01-25T09:55:42.788Z,8.19
2018-01-25T09:56:44.033Z,8.19
2018-01-25T09:58:06.878Z,8.19
2018-01-25T09:59:06.837Z,8.20
2018-01-25T10:00:06.844Z,8.23
2018-01-25T10:01:07.124Z,8.23
2018-01-25T10:02:06.583Z,8.28
2018-01-25T10:03:07.719Z,8.28
2018-01-25T10:04:06.733Z,8.34
2018-01-25T10:05:30.000Z,8.36
2018-01-25T10:06:30.102Z,8.36
2018-01-25T10:07:30.709Z,8.38
2018-01-25T10:08:30.553Z,8.44
2018-01-25T10:09:30.424Z,8.48
2018-01-25T10:10:30.501Z,8.48
2018-01-25T10:11:30.764Z,8.45
2018-01-25T10:12:30.836Z,8.45
2018-01-25T10:13:30.697Z,8.45
2018-01-25T10:14:30.576Z,8.48
2018-01-25T10:15:30.422Z,8.49
2018-01-25T10:16:30.584Z,8.52
2018-01-25T10:17:30.740Z,8.52
2018-01-25T10:18:30.401Z,8.53
2018-01-25T10:19:29.881Z,8.53
2018-01-25T10:20:30.304Z,8.56
2018-01-25T10:21:30.389Z,8.55
2018-01-25T10:22:29.973Z,8.55
2018-01-25T10:23:30.451Z,8.60
2018-01-25T10:24:29.950Z,8.60
2018-01-25T10:25:31.050Z,8.63
2018-01-25T10:26:30.153Z,8.61
2018-01-25T10:27:30.245Z,8.56
2018-01-25T10:28:30.168Z,8.60
2018-01-25T10:29:51.726Z,8.63
2018-01-25T10:30:52.552Z,8.64
2018-01-25T10:31:52.689Z,8.61
2018-01-25T10:32:52.105Z,8.58
2018-01-25T10:33:53.048Z,8.58
2018-01-25T10:34:52.632Z,8.58
2018-01-25T10:35:52.683Z,8.58
2018-01-25T10:36:52.646Z,8.60
2018-01-25T10:37:52.828Z,8.63
2018-01-25T10:39:14.079Z,8.53
2018-01-25T10:40:14.602Z,8.52
2018-01-25T10:41:14.763Z,8.53
2018-01-25T10:42:14.698Z,8.52
2018-01-25T10:43:14.491Z,8.49
2018-01-25T10:44:16.205Z,8.48
2018-01-25T10:45:14.834Z,8.49
2018-01-25T10:46:14.768Z,8.46
2018-01-25T10:47:14.543Z,8.42
2018-01-25T10:48:15.455Z,8.38
2018-01-25T10:49:15.020Z,8.38
2018-01-25T10:50:36.231Z,8.34
2018-01-25T10:51:36.126Z,8.31
2018-01-25T10:52:37.232Z,8.27
2018-01-25T10:53:36.795Z,8.26
2018-01-25T10:54:36.353Z,8.24
2018-01-25T10:55:35.831Z,8.24
2018-01-25T10:56:36.604Z,8.23
2018-01-25T10:57:36.640Z,8.20
2018-01-25T10:58:36.547Z,8.23
2018-01-25T10:59:35.986Z,8.24
2018-01-25T11:00:36.564Z,8.24
2018-01-25T11:01:36.189Z,8.24
2018-01-25T11:02:37.059Z,8.19
2018-01-25T11:03:36.573Z,8.19
2018-01-25T11:04:36.117Z,8.18
2018-01-25T11:05:36.493Z,8.16
2018-01-25T11:06:36.285Z,8.18
2018-01-25T11:07:35.814Z,8.16
2018-01-25T11:08:36.379Z,8.18
2018-01-25T11:09:36.292Z,8.18
2018-01-25T11:10:36.656Z,8.16
2018-01-25T11:11:36.631Z,8.16
2018-01-25T11:12:35.975Z,8.19
2018-01-25T11:13:58.095Z,8.19
2018-01-25T11:14:58.838Z,8.20
2018-01-25T11:15:58.300Z,8.24
2018-01-25T11:16:59.638Z,8.26
2018-01-25T11:17:58.634Z,8.26
2018-01-25T11:18:58.920Z,8.24
2018-01-25T11:19:58.250Z,8.26
2018-01-25T11:20:59.231Z,8.26
2018-01-25T11:21:59.145Z,8.28
2018-01-25T11:22:58.859Z,8.30
2018-01-25T11:23:59.290Z,8.30
2018-01-25T11:24:59.232Z,8.28
2018-01-25T11:25:58.811Z,8.31
2018-01-25T11:26:59.385Z,8.36
2018-01-25T11:27:59.222Z,8.41
2018-01-25T11:28:59.107Z,8.38
2018-01-25T11:29:58.603Z,8.41
2018-01-25T11:30:58.894Z,8.41
2018-01-25T11:31:58.681Z,8.41
2018-01-25T11:32:58.090Z,8.42
2018-01-25T11:33:58.974Z,8.41
2018-01-25T11:34:58.421Z,8.42
2018-01-25T11:36:20.768Z,8.42
2018-01-25T11:37:43.423Z,8.44
2018-01-25T11:38:43.807Z,8.44
2018-01-25T11:39:43.086Z,8.45
2018-01-25T11:41:05.513Z,8.45
2018-01-25T11:42:05.449Z,8.45
2018-01-25T11:43:05.031Z,8.45
2018-01-25T11:44:06.009Z,8.45
2018-01-25T11:45:05.939Z,8.46
2018-01-25T11:46:05.939Z,8.49
2018-01-25T11:47:05.842Z,8.51
2018-01-25T11:48:05.290Z,8.49
2018-01-25T11:49:06.281Z,8.49
2018-01-25T11:50:04.727Z,8.51
2018-01-25T11:51:05.191Z,8.51
2018-01-25T11:52:06.448Z,8.52
2018-01-25T11:53:05.409Z,8.55
2018-01-25T11:54:04.901Z,8.53
2018-01-25T11:55:05.976Z,8.56
2018-01-25T11:56:05.545Z,8.60
2018-01-25T11:57:05.414Z,8.64
2018-01-25T11:58:05.770Z,8.69
2018-01-25T11:59:05.447Z,8.70
2018-01-25T12:00:27.941Z,8.71
2018-01-25T12:01:27.259Z,8.76
2018-01-25T12:02:27.046Z,8.76
2018-01-25T12:03:27.987Z,8.81
2018-01-25T12:04:27.820Z,8.84
2018-01-25T12:05:27.592Z,8.89
2018-01-25T12:06:27.575Z,8.94
2018-01-25T12:07:27.764Z,9.00
2018-01-25T12:08:27.725Z,9.02
2018-01-25T12:09:28.112Z,9.02
2018-01-25T12:10:26.629Z,9.02
2018-01-25T12:11:27.498Z,8.99
2018-01-25T12:12:27.462Z,9.00
2018-01-25T12:13:27.521Z,8.95
2018-01-25T12:14:28.050Z,8.88
2018-01-25T12:15:28.208Z,8.84
2018-01-25T12:16:27.346Z,8.78
2018-01-25T12:17:26.833Z,8.78
2018-01-25T12:18:27.358Z,8.76
2018-01-25T12:19:27.155Z,8.74
2018-01-25T12:20:26.704Z,8.73
2018-01-25T12:21:27.850Z,8.73
2018-01-25T12:22:27.406Z,8.71
2018-01-25T12:23:49.014Z,8.70
2018-01-25T12:24:50.056Z,8.67
2018-01-25T12:25:48.881Z,8.66
2018-01-25T12:26:49.814Z,8.64
2018-01-25T12:27:49.575Z,8.64
2018-01-25T12:28:50.182Z,8.63
2018-01-25T12:29:49.054Z,8.61
2018-01-25T12:30:48.670Z,8.60
2018-01-25T12:31:49.537Z,8.58
2018-01-25T12:32:49.499Z,8.56
2018-01-25T12:33:48.894Z,8.55
2018-01-25T12:35:10.739Z,8.56
2018-01-25T12:36:11.204Z,8.58
2018-01-25T12:37:12.227Z,8.60
2018-01-25T12:38:11.931Z,8.60
2018-01-25T12:39:11.892Z,8.63
2018-01-25T12:40:11.887Z,8.63
2018-01-25T12:41:11.747Z,8.67
2018-01-25T12:42:12.259Z,8.69
2018-01-25T12:43:11.627Z,8.73
2018-01-25T12:44:11.163Z,8.76
2018-01-25T12:45:11.727Z,8.76
2018-01-25T12:46:13.459Z,8.76
2018-01-25T12:47:33.880Z,8.73
2018-01-25T12:48:34.130Z,8.73
2018-01-25T12:49:34.558Z,8.71
2018-01-25T12:50:34.115Z,8.67
2018-01-25T12:51:33.922Z,8.63
2018-01-25T12:52:54.882Z,8.61
2018-01-25T12:54:38.298Z,8.61
2018-01-25T12:55:39.565Z,8.61
2018-01-25T12:56:39.313Z,8.61
2018-01-25T12:57:39.244Z,8.60
2018-01-25T12:59:01.628Z,8.56
2018-01-25T13:00:02.381Z,8.53
2018-01-25T13:01:03.527Z,8.49
2018-01-25T13:02:02.334Z,8.49
2018-01-25T13:03:01.988Z,8.48
2018-01-25T13:04:01.438Z,8.48
2018-01-25T13:05:02.224Z,8.45
2018-01-25T13:06:01.938Z,8.45
2018-01-25T13:07:01.680Z,8.45
2018-01-25T13:08:01.751Z,8.46
2018-01-25T13:09:01.448Z,8.46
2018-01-25T13:10:01.974Z,8.45
2018-01-25T13:11:01.656Z,8.46
2018-01-25T13:12:01.582Z,8.45
2018-01-25T13:13:24.100Z,8.44
2018-01-25T13:14:24.654Z,8.46
2018-01-25T13:15:24.395Z,8.49
2018-01-25T13:16:24.268Z,8.48
2018-01-25T13:17:24.372Z,8.48
2018-01-25T13:18:24.840Z,8.49
2018-01-25T13:19:24.487Z,8.48
2018-01-25T13:20:24.108Z,8.48
2018-01-25T13:21:24.476Z,8.48
2018-01-25T13:22:24.390Z,8.52
2018-01-25T13:23:27.865Z,8.58
2018-01-25T13:24:24.318Z,8.63
2018-01-25T13:25:23.728Z,8.66
2018-01-25T13:26:24.573Z,8.67
2018-01-25T13:27:24.586Z,8.63
2018-01-25T13:28:24.687Z,8.60
2018-01-25T13:29:24.696Z,8.56
2018-01-25T13:30:23.908Z,8.53
2018-01-25T13:31:24.432Z,8.53
2018-01-25T13:32:45.963Z,8.53
2018-01-25T13:33:46.829Z,8.53
2018-01-25T13:34:46.854Z,8.51
2018-01-25T13:35:46.754Z,8.48
2018-01-25T13:36:47.011Z,8.46
2018-01-25T13:37:46.762Z,8.42
2018-01-25T13:38:46.617Z,8.41
2018-01-25T13:40:31.691Z,8.33
2018-01-25T13:41:31.696Z,8.31
2018-01-25T13:42:31.693Z,8.33
2018-01-25T13:43:31.902Z,8.36